Time;durP1;ratioP1;P1;durP2;ratioP2;P2;SDS_P1;SDS_P2;PMS_P1;PMS_P2;Temp;Humidity;BMP_temperature;BMP_pressure;BME280_temperature;BME280_humidity;BME280_pressure;Samples;Min_cycle;Max_cycle;Signal;HPM_P1;HPM_P2
2021/04/05 00:01:05;;;;;;;40.00;15.18;;;;;;;;;;4346509;33;20148;-63
2021/04/05 00:03:31;;;;;;;36.60;15.33;;;;;;;;;;4346436;33;20185;-66
2021/04/05 00:05:56;;;;;;;38.87;15.83;;;;;;;;;;4345015;33;20595;-65
2021/04/05 00:08:21;;;;;;;50.43;17.30;;;;;;;;;;4332618;33;20294;-64
2021/04/05 00:10:51;;;;;;;45.37;16.60;;;;;;;;;;4346419;33;20144;-64
2021/04/05 00:13:18;;;;;;;48.63;16.70;;;;;;;;;;4346252;33;20389;-64
2021/04/05 00:15:44;;;;;;;45.70;17.43;;;;;;;;;;4346383;33;20190;-65
2021/04/05 00:18:09;;;;;;;40.60;16.40;;;;;;;;;;4346866;33;20166;-65
2021/04/05 00:20:36;;;;;;;47.77;18.10;;;;;;;;;;4345911;33;20147;-64
2021/04/05 00:23:02;;;;;;;42.37;17.00;;;;;;;;;;4346711;33;20166;-64
2021/04/05 00:25:27;;;;;;;49.37;17.40;;;;;;;;;;4345452;33;20160;-64
2021/04/05 00:27:52;;;;;;;42.27;17.40;;;;;;;;;;4344784;33;20253;-65
2021/04/05 00:30:25;;;;;;;42.33;17.80;;;;;;;;;;4345311;33;20159;-63
2021/04/05 00:32:51;;;;;;;53.27;18.97;;;;;;;;;;4345103;33;20205;-65
2021/04/05 00:35:20;;;;;;;41.40;16.90;;;;;;;;;;4346443;33;20455;-64
2021/04/05 00:37:46;;;;;;;45.70;17.17;;;;;;;;;;4345617;33;20161;-65
2021/04/05 00:40:13;;;;;;;42.33;16.17;;;;;;;;;;4345806;33;20147;-64
2021/04/05 00:42:38;;;;;;;49.73;16.83;;;;;;;;;;4346331;33;20155;-64
2021/04/05 00:45:05;;;;;;;41.83;16.43;;;;;;;;;;4331387;33;20221;-64
2021/04/05 00:47:30;;;;;;;42.53;15.60;;;;;;;;;;4331535;33;20156;-64
2021/04/05 00:49:55;;;;;;;49.40;16.33;;;;;;;;;;4331375;33;20191;-66
2021/04/05 00:52:20;;;;;;;40.43;14.77;;;;;;;;;;4330539;33;20178;-64
2021/04/05 00:54:46;;;;;;;43.13;15.07;;;;;;;;;;4345821;33;20259;-64
2021/04/05 00:57:11;;;;;;;41.33;15.27;;;;;;;;;;4345393;33;20139;-68
2021/04/05 00:59:36;;;;;;;47.27;15.87;;;;;;;;;;4344600;33;20199;-64
2021/04/05 01:02:02;;;;;;;40.00;15.47;;;;;;;;;;4346419;33;20182;-64
2021/04/05 01:04:27;;;;;;;45.07;15.23;;;;;;;;;;4346011;33;20170;-64
2021/04/05 01:06:52;;;;;;;35.10;13.90;;;;;;;;;;4344454;33;20544;-63
2021/04/05 01:09:17;;;;;;;44.77;12.53;;;;;;;;;;4344370;33;20140;-64
2021/04/05 01:11:42;;;;;;;40.20;12.70;;;;;;;;;;4344407;33;20252;-65
2021/04/05 01:14:08;;;;;;;37.73;12.23;;;;;;;;;;4345670;33;20453;-64
2021/04/05 01:16:33;;;;;;;41.13;13.43;;;;;;;;;;4345571;33;20592;-64
2021/04/05 01:18:59;;;;;;;37.80;11.50;;;;;;;;;;4345836;33;20496;-65
2021/04/05 01:21:25;;;;;;;41.07;12.60;;;;;;;;;;4345568;33;20139;-64
2021/04/05 01:23:50;;;;;;;32.93;12.27;;;;;;;;;;4333087;33;20222;-65
2021/04/05 01:26:15;;;;;;;37.07;11.10;;;;;;;;;;4347514;33;20155;-65
2021/04/05 01:28:41;;;;;;;37.90;12.47;;;;;;;;;;4335529;33;20202;-67
2021/04/05 01:31:06;;;;;;;37.57;12.40;;;;;;;;;;4347516;33;20442;-64
2021/04/05 01:33:32;;;;;;;35.00;11.87;;;;;;;;;;4349435;33;20143;-65
2021/04/05 01:36:02;;;;;;;43.70;12.50;;;;;;;;;;4348991;33;20247;-65
2021/04/05 01:38:29;;;;;;;34.97;11.60;;;;;;;;;;4348635;33;20197;-65
2021/04/05 01:40:56;;;;;;;42.40;12.53;;;;;;;;;;4347305;33;20474;-64
2021/04/05 01:43:21;;;;;;;41.93;12.67;;;;;;;;;;4347516;33;20249;-64
2021/04/05 01:45:46;;;;;;;37.83;11.97;;;;;;;;;;4347375;33;20151;-65
2021/04/05 01:48:15;;;;;;;43.10;11.90;;;;;;;;;;4348604;33;20163;-66
2021/04/05 01:50:41;;;;;;;29.10;10.40;;;;;;;;;;4349128;33;20132;-64
2021/04/05 01:53:07;;;;;;;27.40;10.50;;;;;;;;;;4348930;33;20530;-64
2021/04/05 01:55:33;;;;;;;22.07;9.13;;;;;;;;;;4347044;33;20147;-65
2021/04/05 01:57:58;;;;;;;29.67;9.20;;;;;;;;;;4334967;33;20222;-64
2021/04/05 02:00:26;;;;;;;26.13;9.13;;;;;;;;;;4347305;33;20158;-64
2021/04/05 02:02:51;;;;;;;26.90;9.93;;;;;;;;;;4346807;33;20231;-65
2021/04/05 02:05:17;;;;;;;27.73;9.23;;;;;;;;;;4347360;33;20131;-64
2021/04/05 02:07:42;;;;;;;28.40;9.67;;;;;;;;;;4348745;33;20132;-65
2021/04/05 02:10:26;;;;;;;20.20;7.90;;;;;;;;;;4347784;33;20543;-64
2021/04/05 02:12:52;;;;;;;20.00;8.00;;;;;;;;;;4333915;33;20156;-66
2021/04/05 02:15:17;;;;;;;22.27;8.17;;;;;;;;;;4346916;33;20231;-65
2021/04/05 02:17:43;;;;;;;23.07;8.43;;;;;;;;;;4346679;33;20194;-65
2021/04/05 02:20:09;;;;;;;17.25;7.65;;;;;;;;;;4347866;33;20154;-64
2021/04/05 02:22:44;;;;;;;18.00;7.80;;;;;;;;;;4346790;33;20175;-66
2021/04/05 02:25:16;;;;;;;21.60;7.83;;;;;;;;;;4348236;33;20557;-68
2021/04/05 02:27:46;;;;;;;17.20;7.20;;;;;;;;;;4347383;33;20143;-65
2021/04/05 02:30:22;;;;;;;16.70;7.13;;;;;;;;;;4348411;33;20127;-66
2021/04/05 02:33:01;;;;;;;16.70;7.90;;;;;;;;;;4348077;33;20242;-65
2021/04/05 02:35:28;;;;;;;19.47;7.47;;;;;;;;;;4347207;33;20265;-64
2021/04/05 02:37:56;;;;;;;20.80;8.00;;;;;;;;;;4346479;33;20192;-64
2021/04/05 02:40:22;;;;;;;15.67;7.83;;;;;;;;;;4346311;33;20128;-66
2021/04/05 02:42:47;;;;;;;18.70;7.22;;;;;;;;;;4347254;33;20154;-64
2021/04/05 02:45:15;;;;;;;15.27;8.07;;;;;;;;;;4348272;33;20167;-64
2021/04/05 02:47:40;;;;;;;18.30;8.00;;;;;;;;;;4346728;33;20131;-65
2021/04/05 02:50:06;;;;;;;15.90;7.97;;;;;;;;;;4346343;33;20575;-65
2021/04/05 02:52:36;;;;;;;18.57;7.93;;;;;;;;;;4347166;33;20204;-65
2021/04/05 02:55:02;;;;;;;18.70;8.70;;;;;;;;;;4346123;33;20170;-64
2021/04/05 02:57:27;;;;;;;19.70;8.67;;;;;;;;;;4347637;33;20132;-65
2021/04/05 02:59:53;;;;;;;19.03;8.10;;;;;;;;;;4347347;33;20239;-67
2021/04/05 03:02:18;;;;;;;18.87;7.65;;;;;;;;;;4347043;33;20498;-67
2021/04/05 03:04:43;;;;;;;18.47;8.37;;;;;;;;;;4346606;33;20198;-67
2021/04/05 03:07:09;;;;;;;16.90;8.33;;;;;;;;;;4346423;33;20132;-67
2021/04/05 03:09:34;;;;;;;18.13;8.10;;;;;;;;;;4346233;33;20159;-67
2021/04/05 03:11:59;;;;;;;22.53;8.37;;;;;;;;;;4346438;33;20154;-64
2021/04/05 03:14:25;;;;;;;16.27;7.63;;;;;;;;;;4346749;33;20218;-66
2021/04/05 03:16:51;;;;;;;17.02;8.50;;;;;;;;;;4347349;33;20170;-66
2021/04/05 03:19:17;;;;;;;16.67;8.00;;;;;;;;;;4346358;33;20147;-66
2021/04/05 03:21:43;;;;;;;19.90;8.17;;;;;;;;;;4346443;33;20131;-65
2021/04/05 03:24:08;;;;;;;17.10;7.73;;;;;;;;;;4347548;33;20452;-65
2021/04/05 03:26:34;;;;;;;18.10;8.02;;;;;;;;;;4345944;33;20155;-67
2021/04/05 03:28:59;;;;;;;16.63;7.60;;;;;;;;;;4332439;33;20206;-64
2021/04/05 03:31:26;;;;;;;20.77;8.23;;;;;;;;;;4347765;33;20310;-65
2021/04/05 03:33:55;;;;;;;19.87;8.10;;;;;;;;;;4346704;33;20324;-66
2021/04/05 03:36:27;;;;;;;17.50;7.90;;;;;;;;;;4343782;33;20143;-65
2021/04/05 03:38:53;;;;;;;18.60;8.35;;;;;;;;;;4345876;33;20234;-65
2021/04/05 03:41:26;;;;;;;17.17;8.77;;;;;;;;;;4345727;33;20151;-66
2021/04/05 03:44:03;;;;;;;18.80;8.30;;;;;;;;;;4339896;33;20166;-65
2021/04/05 03:46:30;;;;;;;19.83;8.80;;;;;;;;;;4347448;33;20222;-66
2021/04/05 03:48:59;;;;;;;19.90;8.23;;;;;;;;;;4345018;33;20589;-65
2021/04/05 03:51:40;;;;;;;15.63;8.53;;;;;;;;;;4336139;33;20202;-64
2021/04/05 03:54:07;;;;;;;15.67;7.60;;;;;;;;;;4330930;33;20433;-65
2021/04/05 03:56:43;;;;;;;17.40;8.80;;;;;;;;;;4345022;33;20139;-64
2021/04/05 03:59:10;;;;;;;20.30;8.13;;;;;;;;;;4347085;33;20127;-66
2021/04/05 04:01:41;;;;;;;19.67;8.40;;;;;;;;;;4331946;33;20511;-66
2021/04/05 04:04:12;;;;;;;15.63;7.90;;;;;;;;;;4347137;33;20186;-65
2021/04/05 04:06:46;;;;;;;16.83;8.20;;;;;;;;;;4347006;33;20166;-64
2021/04/05 04:09:12;;;;;;;17.13;7.90;;;;;;;;;;4347010;33;20566;-66
2021/04/05 04:11:38;;;;;;;19.97;8.07;;;;;;;;;;4346736;33;20169;-66
2021/04/05 04:14:04;;;;;;;15.93;7.67;;;;;;;;;;4331554;33;20545;-67
2021/04/05 04:16:30;;;;;;;23.20;8.83;;;;;;;;;;4345434;33;20124;-67
2021/04/05 04:18:56;;;;;;;18.57;8.17;;;;;;;;;;4345074;33;20203;-67
2021/04/05 04:21:21;;;;;;;18.43;8.97;;;;;;;;;;4346745;33;20154;-65
2021/04/05 04:23:47;;;;;;;19.00;8.00;;;;;;;;;;4332585;33;20231;-67
2021/04/05 04:26:12;;;;;;;17.30;7.87;;;;;;;;;;4340427;33;20139;-67
2021/04/05 04:28:42;;;;;;;21.83;8.83;;;;;;;;;;4331704;33;20178;-67
2021/04/05 04:31:07;;;;;;;19.03;8.40;;;;;;;;;;4345504;33;20127;-65
2021/04/05 04:33:32;;;;;;;19.53;8.20;;;;;;;;;;4344713;33;20153;-68
2021/04/05 04:35:58;;;;;;;20.97;8.60;;;;;;;;;;4346582;33;20186;-66
2021/04/05 04:38:24;;;;;;;19.07;9.30;;;;;;;;;;4345352;33;20185;-67
2021/04/05 04:40:50;;;;;;;21.33;9.47;;;;;;;;;;4344581;33;20135;-65
2021/04/05 04:43:15;;;;;;;21.33;8.83;;;;;;;;;;4345291;33;20202;-66
2021/04/05 04:45:40;;;;;;;20.00;7.97;;;;;;;;;;4345302;33;20154;-66
2021/04/05 04:48:06;;;;;;;18.10;7.97;;;;;;;;;;4345230;33;20140;-64
2021/04/05 04:50:31;;;;;;;20.10;8.57;;;;;;;;;;4344833;33;20177;-66
2021/04/05 04:52:56;;;;;;;21.93;8.63;;;;;;;;;;4345030;33;20143;-66
2021/04/05 04:55:22;;;;;;;22.13;8.63;;;;;;;;;;4346161;33;20549;-65
2021/04/05 04:57:48;;;;;;;17.60;7.40;;;;;;;;;;4345331;33;20202;-65
2021/04/05 05:00:13;;;;;;;17.10;8.00;;;;;;;;;;4347301;33;20564;-65
2021/04/05 05:02:40;;;;;;;17.97;7.70;;;;;;;;;;4349637;33;20152;-65
2021/04/05 05:05:06;;;;;;;20.67;8.00;;;;;;;;;;4348590;33;20139;-65
2021/04/05 05:07:32;;;;;;;16.50;7.47;;;;;;;;;;4349460;33;20166;-67
2021/04/05 05:09:57;;;;;;;12.93;5.23;;;;;;;;;;4348091;33;20186;-67
2021/04/05 05:12:23;;;;;;;8.57;3.10;;;;;;;;;;4349093;33;20517;-67
2021/04/05 05:14:48;;;;;;;4.70;1.77;;;;;;;;;;4348278;33;20144;-67
2021/04/05 05:17:14;;;;;;;6.77;1.70;;;;;;;;;;4347865;33;20185;-67
2021/04/05 05:19:40;;;;;;;11.07;1.73;;;;;;;;;;4334200;33;20164;-65
2021/04/05 05:22:07;;;;;;;9.83;1.53;;;;;;;;;;4349606;33;20132;-66
2021/04/05 05:24:33;;;;;;;7.17;1.10;;;;;;;;;;4348773;33;20155;-66
2021/04/05 05:26:58;;;;;;;8.43;1.90;;;;;;;;;;4336073;33;20496;-67
2021/04/05 05:29:24;;;;;;;8.93;1.47;;;;;;;;;;4334450;33;20229;-66
2021/04/05 05:31:50;;;;;;;6.73;1.53;;;;;;;;;;4334004;33;20203;-68
2021/04/05 05:34:20;;;;;;;11.20;1.47;;;;;;;;;;4342395;33;20170;-67
2021/04/05 05:36:45;;;;;;;9.93;2.00;;;;;;;;;;4347315;33;20222;-68
2021/04/05 05:39:11;;;;;;;6.93;1.47;;;;;;;;;;4347829;33;20132;-66
2021/04/05 05:41:43;;;;;;;14.57;1.67;;;;;;;;;;4349253;33;20190;-67
2021/04/05 05:44:12;;;;;;;12.20;2.07;;;;;;;;;;4333814;33;20190;-67
2021/04/05 05:46:42;;;;;;;9.87;1.80;;;;;;;;;;4348349;33;20173;-68
2021/04/05 05:49:10;;;;;;;10.07;1.83;;;;;;;;;;4348041;33;20233;-66
2021/04/05 05:51:42;;;;;;;9.63;1.80;;;;;;;;;;4349137;33;20197;-69
2021/04/05 05:54:33;;;;;;;7.63;1.73;;;;;;;;;;4346913;33;20143;-67
2021/04/05 05:57:07;;;;;;;11.30;1.53;;;;;;;;;;4347933;33;20206;-68
2021/04/05 05:59:51;;;;;;;13.17;1.77;;;;;;;;;;4348209;33;20170;-66
2021/04/05 06:02:22;;;;;;;8.03;1.43;;;;;;;;;;4333860;33;20214;-67
2021/04/05 06:05:05;;;;;;;13.83;1.97;;;;;;;;;;4347701;33;20479;-67
2021/04/05 06:07:50;;;;;;;14.13;1.70;;;;;;;;;;4338611;33;20602;-66
2021/04/05 06:10:29;;;;;;;10.47;1.83;;;;;;;;;;4333570;33;20140;-67
2021/04/05 06:12:57;;;;;;;14.67;1.90;;;;;;;;;;4336233;33;20577;-66
2021/04/05 06:15:25;;;;;;;10.27;1.90;;;;;;;;;;4346864;33;20541;-68
2021/04/05 06:18:09;;;;;;;14.97;1.87;;;;;;;;;;4347771;33;20136;-67
2021/04/05 06:20:37;;;;;;;7.10;1.40;;;;;;;;;;4348472;33;20166;-69
2021/04/05 06:23:21;;;;;;;10.17;1.80;;;;;;;;;;4348048;33;20132;-68
2021/04/05 06:25:47;;;;;;;8.73;1.60;;;;;;;;;;4346906;33;20206;-68
2021/04/05 06:28:24;;;;;;;3.90;1.23;;;;;;;;;;4346820;33;20544;-69
2021/04/05 06:31:08;;;;;;;7.17;1.23;;;;;;;;;;4333384;33;20155;-69
2021/04/05 06:33:35;;;;;;;9.77;1.30;;;;;;;;;;4346921;33;20237;-69
2021/04/05 06:36:00;;;;;;;7.27;1.50;;;;;;;;;;4346605;33;20152;-69
2021/04/05 06:38:31;;;;;;;4.80;0.93;;;;;;;;;;4347295;33;20151;-69
2021/04/05 06:41:00;;;;;;;7.23;1.07;;;;;;;;;;4347414;33;20270;-69
2021/04/05 06:43:44;;;;;;;8.20;1.33;;;;;;;;;;4347036;33;20131;-69
2021/04/05 06:46:20;;;;;;;9.23;2.10;;;;;;;;;;4348036;33;20128;-69
2021/04/05 06:49:11;;;;;;;9.87;1.37;;;;;;;;;;4346615;33;20155;-66
2021/04/05 06:51:56;;;;;;;7.70;1.67;;;;;;;;;;4323487;33;20155;-65
2021/04/05 06:54:30;;;;;;;9.17;1.77;;;;;;;;;;4332848;33;20159;-67
2021/04/05 06:57:07;;;;;;;9.83;1.87;;;;;;;;;;4346227;33;20261;-69
2021/04/05 06:59:51;;;;;;;14.63;2.20;;;;;;;;;;4346953;33;20135;-71
2021/04/05 07:02:19;;;;;;;13.63;2.63;;;;;;;;;;4346419;33;20603;-66
2021/04/05 07:05:03;;;;;;;9.63;1.90;;;;;;;;;;4343135;33;20143;-68
2021/04/05 07:07:39;;;;;;;14.67;2.20;;;;;;;;;;4343122;33;20156;-68
2021/04/05 07:10:07;;;;;;;15.53;2.40;;;;;;;;;;4331250;33;20272;-69
2021/04/05 07:12:50;;;;;;;16.10;2.60;;;;;;;;;;4346982;33;20159;-67
2021/04/05 07:15:19;;;;;;;15.73;2.10;;;;;;;;;;4347752;33;20457;-68
2021/04/05 07:17:47;;;;;;;16.33;2.80;;;;;;;;;;4344583;33;20151;-68
2021/04/05 07:20:39;;;;;;;11.77;2.43;;;;;;;;;;4346507;33;20264;-67
2021/04/05 07:23:07;;;;;;;22.43;2.30;;;;;;;;;;4317182;33;20358;-68
2021/04/05 07:25:35;;;;;;;14.70;1.80;;;;;;;;;;4344982;33;20191;-67
2021/04/05 07:28:22;;;;;;;18.43;2.10;;;;;;;;;;4345129;33;20166;-66
2021/04/05 07:30:53;;;;;;;7.60;1.70;;;;;;;;;;4345900;33;20162;-68
2021/04/05 07:33:36;;;;;;;16.57;2.87;;;;;;;;;;4333052;33;20166;-66
2021/04/05 07:36:15;;;;;;;10.67;1.97;;;;;;;;;;4344978;33;20151;-66
2021/04/05 07:38:59;;;;;;;12.83;2.30;;;;;;;;;;4331875;33;20167;-66
2021/04/05 07:41:30;;;;;;;12.17;1.93;;;;;;;;;;4345802;33;20162;-65
2021/04/05 07:44:08;;;;;;;11.37;1.70;;;;;;;;;;4345180;33;20532;-65
2021/04/05 07:46:39;;;;;;;8.97;1.87;;;;;;;;;;4332267;33;20626;-64
2021/04/05 07:49:09;;;;;;;4.27;1.20;;;;;;;;;;4345423;33;20209;-65
2021/04/05 07:51:44;;;;;;;4.90;1.30;;;;;;;;;;4343876;33;20540;-66
2021/04/05 07:54:09;;;;;;;7.40;1.70;;;;;;;;;;4345569;33;20135;-66
2021/04/05 07:56:38;;;;;;;6.50;1.70;;;;;;;;;;4344240;33;20222;-67
2021/04/05 07:59:18;;;;;;;5.33;1.07;;;;;;;;;;4345404;33;20198;-66
2021/04/05 08:01:50;;;;;;;7.20;1.60;;;;;;;;;;4346351;33;20615;-66
2021/04/05 08:04:19;;;;;;;5.43;1.30;;;;;;;;;;4344249;33;20227;-66
2021/04/05 08:07:05;;;;;;;15.20;2.60;;;;;;;;;;4345777;33;20136;-65
2021/04/05 08:09:34;;;;;;;9.10;1.70;;;;;;;;;;4344488;33;20162;-66
2021/04/05 08:12:12;;;;;;;2.60;0.93;;;;;;;;;;4344741;33;20135;-64
2021/04/05 08:14:43;;;;;;;9.90;1.10;;;;;;;;;;4345980;33;20162;-64
2021/04/05 08:17:26;;;;;;;3.83;1.10;;;;;;;;;;4344961;33;20517;-64
2021/04/05 08:20:02;;;;;;;2.83;0.60;;;;;;;;;;4344657;33;20139;-64
2021/04/05 08:22:43;;;;;;;7.33;1.00;;;;;;;;;;4330519;33;20213;-64
2021/04/05 08:25:31;;;;;;;3.60;1.07;;;;;;;;;;4331813;33;20255;-64
2021/04/05 08:28:04;;;;;;;8.23;1.23;;;;;;;;;;4344488;33;20189;-65
2021/04/05 08:30:39;;;;;;;6.93;1.20;;;;;;;;;;4345219;33;20151;-65
2021/04/05 08:33:26;;;;;;;6.43;1.13;;;;;;;;;;4345117;33;20265;-65
2021/04/05 08:35:58;;;;;;;11.23;1.40;;;;;;;;;;4344585;33;20190;-65
2021/04/05 08:38:29;;;;;;;9.33;1.60;;;;;;;;;;4332784;33;20299;-65
2021/04/05 08:41:09;;;;;;;11.30;1.67;;;;;;;;;;4344030;33;20709;-63
2021/04/05 08:43:41;;;;;;;6.93;1.50;;;;;;;;;;4345203;33;20182;-65
2021/04/05 08:46:12;;;;;;;8.70;1.50;;;;;;;;;;4344177;33;20151;-63
2021/04/05 08:48:39;;;;;;;4.40;1.00;;;;;;;;;;4344698;33;20155;-64
2021/04/05 08:51:07;;;;;;;2.37;0.90;;;;;;;;;;4346580;33;20222;-64
2021/04/05 08:53:36;;;;;;;5.53;1.10;;;;;;;;;;4344697;33;20135;-63
2021/04/05 08:56:01;;;;;;;5.47;1.10;;;;;;;;;;4344763;33;20225;-66
2021/04/05 08:58:35;;;;;;;3.57;0.60;;;;;;;;;;4346566;33;20186;-64
2021/04/05 09:01:04;;;;;;;4.73;0.70;;;;;;;;;;4331771;33;20626;-65
2021/04/05 09:03:31;;;;;;;6.67;0.90;;;;;;;;;;4344629;33;20136;-65
2021/04/05 09:05:57;;;;;;;1.83;0.73;;;;;;;;;;4344659;33;20166;-64
2021/04/05 09:08:24;;;;;;;3.10;0.87;;;;;;;;;;4344650;33;20128;-64
2021/04/05 09:11:05;;;;;;;4.73;1.07;;;;;;;;;;4344904;33;20135;-63
2021/04/05 09:13:35;;;;;;;5.53;1.10;;;;;;;;;;4345100;33;20151;-65
2021/04/05 09:16:06;;;;;;;6.03;1.20;;;;;;;;;;4344346;33;20143;-65
2021/04/05 09:18:41;;;;;;;5.33;1.40;;;;;;;;;;4344388;33;20140;-66
2021/04/05 09:21:07;;;;;;;4.70;1.10;;;;;;;;;;4344826;33;20177;-66
2021/04/05 09:23:50;;;;;;;3.10;1.33;;;;;;;;;;4346477;33;20136;-64
2021/04/05 09:26:35;;;;;;;4.90;1.47;;;;;;;;;;4344898;33;20725;-65
2021/04/05 09:29:10;;;;;;;11.30;1.80;;;;;;;;;;4344669;33;20210;-64
2021/04/05 09:31:48;;;;;;;7.70;1.40;;;;;;;;;;4344085;33;20244;-64
2021/04/05 09:34:28;;;;;;;1.93;0.80;;;;;;;;;;4344415;33;20213;-65
2021/04/05 09:36:53;;;;;;;2.47;0.70;;;;;;;;;;4331718;33;20182;-63
2021/04/05 09:39:37;;;;;;;9.73;1.23;;;;;;;;;;4345219;33;20155;-64
2021/04/05 09:42:17;;;;;;;5.57;1.20;;;;;;;;;;4345596;33;20295;-65
2021/04/05 09:45:01;;;;;;;6.53;1.43;;;;;;;;;;4329495;33;20508;-65
2021/04/05 09:47:52;;;;;;;7.97;1.73;;;;;;;;;;4332294;33;20127;-65
2021/04/05 09:50:31;;;;;;;6.63;1.70;;;;;;;;;;4301913;33;20199;-65
2021/04/05 09:53:12;;;;;;;10.33;1.57;;;;;;;;;;4329236;33;20167;-80
2021/04/05 09:55:52;;;;;;;9.63;2.00;;;;;;;;;;4331225;33;20231;-80
2021/04/05 09:58:23;;;;;;;10.23;1.30;;;;;;;;;;4333009;33;20147;-80
2021/04/05 10:01:16;;;;;;;;;;;;;;;;;;;;;
2021/04/05 10:03:43;;;;;;;8.30;1.80;;;;;;;;;;4334434;33;20137;-80
2021/04/05 10:06:13;;;;;;;6.57;1.40;;;;;;;;;;4333586;33;20136;-80
2021/04/05 10:08:39;;;;;;;9.43;1.70;;;;;;;;;;4332125;33;20159;-80
2021/04/05 10:11:04;;;;;;;6.40;1.47;;;;;;;;;;4332269;33;20230;-80
2021/04/05 10:13:32;;;;;;;8.50;1.20;;;;;;;;;;4332180;33;20136;-81
2021/04/05 10:16:00;;;;;;;8.23;1.50;;;;;;;;;;4332570;33;20156;-80
2021/04/05 10:18:27;;;;;;;4.47;1.23;;;;;;;;;;4331211;33;20160;-80
2021/04/05 10:20:52;;;;;;;8.43;1.30;;;;;;;;;;4332454;33;20164;-79
2021/04/05 10:23:23;;;;;;;5.93;1.37;;;;;;;;;;4331178;33;20160;-80
2021/04/05 10:25:52;;;;;;;6.17;2.77;;;;;;;;;;4333093;33;20522;-79
2021/04/05 10:28:18;;;;;;;5.53;1.00;;;;;;;;;;4332829;33;20152;-80
2021/04/05 10:30:45;;;;;;;5.03;1.20;;;;;;;;;;4331942;33;20167;-79
2021/04/05 10:33:14;;;;;;;4.83;1.37;;;;;;;;;;4332251;33;20174;-78
2021/04/05 10:35:42;;;;;;;8.87;1.83;;;;;;;;;;4331590;33;20533;-80
2021/04/05 10:38:10;;;;;;;8.53;1.70;;;;;;;;;;4330401;33;20190;-79
2021/04/05 10:40:35;;;;;;;9.53;1.47;;;;;;;;;;4332221;33;20151;-79
2021/04/05 10:43:12;;;;;;;6.73;1.50;;;;;;;;;;4332131;33;20564;-80
2021/04/05 10:45:38;;;;;;;11.63;1.90;;;;;;;;;;4330701;33;20171;-79
2021/04/05 10:48:05;;;;;;;9.17;1.50;;;;;;;;;;4332265;33;20205;-79
2021/04/05 10:50:33;;;;;;;12.07;2.07;;;;;;;;;;4331799;33;20194;-80
2021/04/05 10:53:13;;;;;;;8.93;1.97;;;;;;;;;;4331643;33;20611;-80
2021/04/05 10:55:40;;;;;;;8.67;1.70;;;;;;;;;;4331817;33;20591;-80
2021/04/05 10:58:06;;;;;;;9.07;1.50;;;;;;;;;;4331786;33;20442;-80
2021/04/05 11:00:41;;;;;;;8.00;1.23;;;;;;;;;;4331845;33;20136;-80
2021/04/05 11:03:21;;;;;;;7.00;1.20;;;;;;;;;;4331391;33;20143;-81
2021/04/05 11:05:49;;;;;;;7.00;1.33;;;;;;;;;;4332203;33;20202;-79
2021/04/05 11:08:16;;;;;;;5.47;1.20;;;;;;;;;;4331325;33;20195;-79
2021/04/05 11:10:46;;;;;;;8.33;1.30;;;;;;;;;;4331548;33;20136;-80
2021/04/05 11:13:14;;;;;;;4.43;1.07;;;;;;;;;;4331893;33;20136;-80
2021/04/05 11:15:43;;;;;;;5.70;1.10;;;;;;;;;;4331473;33;20143;-80
2021/04/05 11:18:13;;;;;;;7.27;1.50;;;;;;;;;;4330298;33;20167;-80
2021/04/05 11:20:42;;;;;;;3.13;1.07;;;;;;;;;;4331931;33;20443;-80
2021/04/05 11:23:09;;;;;;;5.37;0.90;;;;;;;;;;4331487;33;20161;-79
2021/04/05 11:25:35;;;;;;;4.93;1.10;;;;;;;;;;4331380;33;20198;-80
2021/04/05 11:28:10;;;;;;;6.70;1.07;;;;;;;;;;4331104;33;20152;-81
2021/04/05 11:30:37;;;;;;;5.33;1.40;;;;;;;;;;4330506;33;20174;-76
2021/04/05 11:33:02;;;;;;;4.03;1.00;;;;;;;;;;4331042;33;20135;-80
2021/04/05 11:35:40;;;;;;;3.57;0.70;;;;;;;;;;4330861;33;20210;-81
2021/04/05 11:38:06;;;;;;;10.23;1.53;;;;;;;;;;4327956;33;20251;-80
2021/04/05 11:40:32;;;;;;;6.93;1.10;;;;;;;;;;4330846;33;20223;-80
2021/04/05 11:42:59;;;;;;;3.03;1.03;;;;;;;;;;4330853;33;20136;-81
2021/04/05 11:45:32;;;;;;;5.03;1.23;;;;;;;;;;4331497;33;20167;-79
2021/04/05 11:47:59;;;;;;;4.00;0.90;;;;;;;;;;4331223;33;20139;-80
2021/04/05 11:50:27;;;;;;;2.23;0.50;;;;;;;;;;4331092;33;20616;-80
2021/04/05 11:53:01;;;;;;;4.80;0.80;;;;;;;;;;4331156;33;20140;-80
2021/04/05 11:55:29;;;;;;;4.37;0.80;;;;;;;;;;4330689;33;20147;-80
2021/04/05 11:58:00;;;;;;;3.13;0.60;;;;;;;;;;4331793;33;20183;-80
2021/04/05 12:00:36;;;;;;;3.03;0.80;;;;;;;;;;4332269;33;20186;-80
2021/04/05 12:03:06;;;;;;;3.97;0.70;;;;;;;;;;4331349;33;20162;-80
2021/04/05 12:05:35;;;;;;;6.23;1.00;;;;;;;;;;4331132;33;20227;-81
2021/04/05 12:08:13;;;;;;;5.77;1.20;;;;;;;;;;4331370;33;20152;-79
2021/04/05 12:10:39;;;;;;;4.83;1.00;;;;;;;;;;4329688;33;20236;-81
2021/04/05 12:13:11;;;;;;;4.83;0.70;;;;;;;;;;4330773;33;20151;-80
2021/04/05 12:15:36;;;;;;;4.87;0.80;;;;;;;;;;4331409;33;20504;-79
2021/04/05 12:18:02;;;;;;;1.23;0.60;;;;;;;;;;4330348;33;20140;-78
2021/04/05 12:20:29;;;;;;;3.33;0.77;;;;;;;;;;4330569;33;20135;-77
2021/04/05 12:22:58;;;;;;;1.83;0.60;;;;;;;;;;4330169;33;20179;-78
2021/04/05 12:25:32;;;;;;;1.43;0.73;;;;;;;;;;4330203;33;20234;-78
2021/04/05 12:28:01;;;;;;;2.30;0.67;;;;;;;;;;4330949;33;20211;-79
2021/04/05 12:30:31;;;;;;;3.50;0.80;;;;;;;;;;4330319;33;20147;-79
2021/04/05 12:32:57;;;;;;;2.73;0.77;;;;;;;;;;4330385;33;20143;-80
2021/04/05 12:35:24;;;;;;;2.77;0.70;;;;;;;;;;4330403;33;20501;-80
2021/04/05 12:37:54;;;;;;;2.60;0.70;;;;;;;;;;4330765;33;20195;-80
2021/04/05 12:40:23;;;;;;;7.57;1.20;;;;;;;;;;4330228;33;20542;-81
2021/04/05 12:42:52;;;;;;;2.00;0.70;;;;;;;;;;4330163;33;20182;-80
2021/04/05 12:45:18;;;;;;;1.42;0.60;;;;;;;;;;4330150;33;20466;-80
2021/04/05 12:47:44;;;;;;;4.13;0.70;;;;;;;;;;4330065;33;20220;-78
2021/04/05 12:50:12;;;;;;;2.07;0.80;;;;;;;;;;4329854;33;20152;-81
2021/04/05 12:52:39;;;;;;;3.10;0.80;;;;;;;;;;4329918;33;20128;-82
2021/04/05 12:55:08;;;;;;;5.67;0.80;;;;;;;;;;4330157;33;20210;-80
2021/04/05 12:57:34;;;;;;;4.20;1.00;;;;;;;;;;4329973;33;20147;-82
2021/04/05 13:00:00;;;;;;;3.60;0.77;;;;;;;;;;4330723;33;20183;-81
2021/04/05 13:02:27;;;;;;;3.10;1.10;;;;;;;;;;4330419;33;20144;-79
2021/04/05 13:04:56;;;;;;;5.47;0.85;;;;;;;;;;4330590;33;20140;-78
2021/04/05 13:07:25;;;;;;;3.65;0.95;;;;;;;;;;4328872;33;20283;-82
2021/04/05 13:09:56;;;;;;;5.00;1.08;;;;;;;;;;4329398;33;20170;-80
2021/04/05 13:12:35;;;;;;;5.12;1.10;;;;;;;;;;4330138;33;20163;-80
2021/04/05 13:15:03;;;;;;;5.97;1.10;;;;;;;;;;4330780;33;20550;-81
2021/04/05 13:17:32;;;;;;;2.43;0.90;;;;;;;;;;4329949;33;20546;-80
2021/04/05 13:20:04;;;;;;;4.07;1.03;;;;;;;;;;4330565;33;20219;-80
2021/04/05 13:22:32;;;;;;;3.27;0.70;;;;;;;;;;4331545;33;20475;-80
2021/04/05 13:25:03;;;;;;;3.22;0.88;;;;;;;;;;4333183;33;20449;-80
2021/04/05 13:27:29;;;;;;;3.15;0.80;;;;;;;;;;4331824;33;20155;-79
2021/04/05 13:29:55;;;;;;;2.67;1.10;;;;;;;;;;4332707;33;20675;-81
2021/04/05 13:32:31;;;;;;;4.47;0.77;;;;;;;;;;4332208;33;20139;-80
2021/04/05 13:35:05;;;;;;;3.57;0.90;;;;;;;;;;4332733;33;20572;-76
2021/04/05 13:37:31;;;;;;;6.70;1.00;;;;;;;;;;4333444;33;20156;-80
2021/04/05 13:39:57;;;;;;;8.35;0.88;;;;;;;;;;4332686;33;20230;-79
2021/04/05 13:42:22;;;;;;;5.22;1.00;;;;;;;;;;4332344;33;20140;-80
2021/04/05 13:44:48;;;;;;;7.15;1.48;;;;;;;;;;4331332;33;20172;-80
2021/04/05 13:47:14;;;;;;;7.03;1.20;;;;;;;;;;4332319;33;20496;-76
2021/04/05 13:50:09;;;;;;;6.28;1.10;;;;;;;;;;4332493;33;20178;-81
2021/04/05 13:52:34;;;;;;;5.10;1.17;;;;;;;;;;4331103;33;20601;-76
2021/04/05 13:55:05;;;;;;;3.47;1.00;;;;;;;;;;4332534;33;20144;-80
2021/04/05 13:57:32;;;;;;;7.17;1.50;;;;;;;;;;4333737;33;20561;-80
2021/04/05 14:00:05;;;;;;;8.17;1.07;;;;;;;;;;4332145;33;20623;-80
2021/04/05 14:02:32;;;;;;;5.70;1.30;;;;;;;;;;4332066;33;20170;-81
2021/04/05 14:05:00;;;;;;;4.70;1.20;;;;;;;;;;4332045;33;20514;-81
2021/04/05 14:07:32;;;;;;;5.10;1.10;;;;;;;;;;4332115;33;20135;-80
2021/04/05 14:09:57;;;;;;;8.03;1.30;;;;;;;;;;4331151;33;20243;-78
2021/04/05 14:12:23;;;;;;;5.40;1.20;;;;;;;;;;4332296;33;20136;-80
2021/04/05 14:14:48;;;;;;;3.37;0.90;;;;;;;;;;4332367;33;20203;-79
2021/04/05 14:17:18;;;;;;;10.80;1.80;;;;;;;;;;4333822;33;20502;-81
2021/04/05 14:19:53;;;;;;;6.07;1.10;;;;;;;;;;4331818;33;20132;-79
2021/04/05 14:22:36;;;;;;;7.43;1.20;;;;;;;;;;4332479;33;20590;-78
2021/04/05 14:25:20;;;;;;;5.47;1.30;;;;;;;;;;4331883;33;20162;-78
2021/04/05 14:27:47;;;;;;;5.27;1.53;;;;;;;;;;4332881;33;20198;-79
2021/04/05 14:30:13;;;;;;;6.60;1.27;;;;;;;;;;4318912;33;20231;-77
2021/04/05 14:32:58;;;;;;;6.10;1.07;;;;;;;;;;4332071;33;20564;-79
2021/04/05 14:35:31;;;;;;;7.10;1.23;;;;;;;;;;4332297;33;20182;-79
2021/04/05 14:38:05;;;;;;;4.00;1.13;;;;;;;;;;4332891;33;20184;-75
2021/04/05 14:40:32;;;;;;;7.83;1.13;;;;;;;;;;4332015;33;20580;-76
2021/04/05 14:43:01;;;;;;;6.27;1.10;;;;;;;;;;4333187;33;20202;-77
2021/04/05 14:45:26;;;;;;;6.90;0.90;;;;;;;;;;4332305;33;20155;-78
2021/04/05 14:47:56;;;;;;;12.63;1.53;;;;;;;;;;4332397;33;20136;-77
2021/04/05 14:50:26;;;;;;;3.63;1.10;;;;;;;;;;4331609;33;20238;-76
2021/04/05 14:52:56;;;;;;;2.77;0.67;;;;;;;;;;4331608;33;20140;-76